createdAt,value
2023-11-07T00:02:56.480Z,100143.75
2023-11-07T00:05:58.054Z,100137.72
2023-11-07T00:08:59.592Z,100140.63
2023-11-07T00:12:02.367Z,100144.78
2023-11-07T00:15:04.333Z,100144.69
2023-11-07T00:18:06.613Z,100147.28
2023-11-07T00:21:08.520Z,100142.72
2023-11-07T00:24:10.175Z,100138.34
2023-11-07T00:27:11.596Z,100139.94
2023-11-07T00:30:13.054Z,100142.53
2023-11-07T00:33:14.808Z,100139.03
2023-11-07T00:36:17.307Z,100145.03
2023-11-07T00:39:18.755Z,100148.59
2023-11-07T00:42:20.215Z,100144.06
2023-11-07T00:45:21.730Z,100147.50
2023-11-07T00:48:23.453Z,100152.75
2023-11-07T00:51:25.677Z,100149.22
2023-11-07T00:54:27.132Z,100154.66
2023-11-07T00:57:28.687Z,100150.56
2023-11-07T01:00:30.206Z,100160.09
2023-11-07T01:03:32.283Z,100155.50
2023-11-07T01:06:33.867Z,100161.38
2023-11-07T01:09:35.539Z,100157.84
2023-11-07T01:12:37.358Z,100150.72
2023-11-07T01:15:39.276Z,100156.97
2023-11-07T01:18:41.015Z,100149.34
2023-11-07T01:21:42.546Z,100145.09
2023-11-07T01:24:43.963Z,100149.19
2023-11-07T01:27:45.386Z,100144.38
2023-11-07T01:30:47.543Z,100142.56
2023-11-07T01:33:49.250Z,100139.09
2023-11-07T01:36:51.408Z,100142.56
2023-11-07T01:39:52.979Z,100145.28
2023-11-07T01:42:56.543Z,100147.91
2023-11-07T01:46:01.486Z,100153.28
2023-11-07T01:49:03.928Z,100141.09
2023-11-07T01:52:05.764Z,100146.34
2023-11-07T01:55:11.523Z,100142.81
2023-11-07T01:58:13.986Z,100137.72
2023-11-07T02:01:15.689Z,100142.97
2023-11-07T02:04:18.519Z,100138.00
2023-11-07T02:07:20.165Z,100145.09
2023-11-07T02:10:22.747Z,100161.94
2023-11-07T02:13:24.248Z,100156.88
2023-11-07T02:16:25.702Z,100159.88
2023-11-07T02:19:27.133Z,100158.53
2023-11-07T02:22:28.605Z,100160.44
2023-11-07T02:25:30.082Z,100163.25
2023-11-07T02:28:32.874Z,100161.53
2023-11-07T02:31:34.324Z,100166.75
2023-11-07T02:34:35.823Z,100169.34
2023-11-07T02:37:37.560Z,100151.72
2023-11-07T02:40:39.417Z,100164.66
2023-11-07T02:43:41.422Z,100153.94
2023-11-07T02:46:42.941Z,100165.13
2023-11-07T02:49:44.400Z,100148.47
2023-11-07T02:52:46.406Z,100142.34
2023-11-07T02:55:48.139Z,100138.91
2023-11-07T02:58:49.557Z,100131.84
2023-11-07T03:01:51.792Z,100143.22
2023-11-07T03:04:55.779Z,100139.88
2023-11-07T03:07:58.579Z,100146.03
2023-11-07T03:11:00.026Z,100150.53
2023-11-07T03:14:01.503Z,100142.00
2023-11-07T03:17:02.981Z,100150.66
2023-11-07T03:20:07.495Z,100158.91
2023-11-07T03:23:09.019Z,100154.53
2023-11-07T03:26:11.278Z,100161.25
2023-11-07T03:29:12.978Z,100153.16
2023-11-07T03:32:14.766Z,100156.72
2023-11-07T03:35:18.055Z,100159.47
2023-11-07T03:38:20.758Z,100166.53
2023-11-07T03:41:23.509Z,100171.72
2023-11-07T03:44:25.222Z,100158.41
2023-11-07T03:47:26.786Z,100171.47
2023-11-07T03:50:29.520Z,100162.53
2023-11-07T03:53:32.586Z,100163.28
2023-11-07T03:56:34.087Z,100165.13
2023-11-07T03:59:35.802Z,100170.28
2023-11-07T04:02:38.171Z,100181.56
2023-11-07T04:05:39.800Z,100185.00
2023-11-07T04:08:41.320Z,100175.19
2023-11-07T04:11:43.318Z,100166.44
2023-11-07T04:14:46.357Z,100176.75
2023-11-07T04:17:51.946Z,100170.53
2023-11-07T04:20:53.628Z,100173.03
2023-11-07T04:23:55.120Z,100162.34
2023-11-07T04:26:56.671Z,100172.00
2023-11-07T04:29:58.165Z,100172.81
2023-11-07T04:33:00.005Z,100184.97
2023-11-07T04:36:02.497Z,100170.91
2023-11-07T04:39:04.111Z,100166.38
2023-11-07T04:42:06.618Z,100172.63
2023-11-07T04:45:10.085Z,100163.81
2023-11-07T04:48:12.486Z,100161.91
2023-11-07T04:51:14.086Z,100164.56
2023-11-07T04:54:15.600Z,100167.97
2023-11-07T04:57:17.109Z,100174.22
2023-11-07T05:00:20.802Z,100175.97
2023-11-07T05:03:29.628Z,100171.50
2023-11-07T05:06:35.701Z,100190.69
2023-11-07T05:09:37.608Z,100183.59
2023-11-07T05:12:41.821Z,100188.88
2023-11-07T05:15:44.849Z,100192.28
2023-11-07T05:18:47.121Z,100195.91
2023-11-07T05:21:48.672Z,100196.16
2023-11-07T05:24:50.122Z,100191.75
2023-11-07T05:27:51.641Z,100194.88
2023-11-07T05:30:53.145Z,100189.16
2023-11-07T05:33:59.949Z,100187.31
2023-11-07T05:37:01.428Z,100188.28
2023-11-07T05:40:05.998Z,100183.03
2023-11-07T05:43:09.347Z,100188.25
2023-11-07T05:46:10.826Z,100190.03
2023-11-07T05:49:12.706Z,100193.44
2023-11-07T05:52:14.289Z,100188.16
2023-11-07T05:55:15.802Z,100178.53
2023-11-07T05:58:17.947Z,100180.28
2023-11-07T06:01:19.595Z,100180.31
2023-11-07T06:04:35.602Z,100188.00
2023-11-07T06:07:37.293Z,100185.34
2023-11-07T06:10:38.788Z,100197.75
2023-11-07T06:13:40.369Z,100188.22
2023-11-07T06:16:42.020Z,100192.63
2023-11-07T06:19:43.443Z,100191.66
2023-11-07T06:22:45.844Z,100196.81
2023-11-07T06:25:48.314Z,100199.59
2023-11-07T06:28:49.839Z,100205.63
2023-11-07T06:31:51.325Z,100209.84
2023-11-07T06:34:54.397Z,100212.59
2023-11-07T06:37:55.815Z,100207.47
2023-11-07T06:40:57.400Z,100203.13
2023-11-07T06:43:58.881Z,100204.00
2023-11-07T06:47:00.843Z,100212.81
2023-11-07T06:50:02.419Z,100214.41
2023-11-07T06:53:03.956Z,100214.41
2023-11-07T06:56:05.852Z,100223.34
2023-11-07T06:59:07.280Z,100227.69
2023-11-07T07:02:08.716Z,100233.81
2023-11-07T07:05:14.470Z,100229.47
2023-11-07T07:08:16.411Z,100236.41
2023-11-07T07:11:18.214Z,100230.22
2023-11-07T07:14:19.650Z,100231.19
2023-11-07T07:17:24.978Z,100236.41
2023-11-07T07:20:30.113Z,100239.84
2023-11-07T07:23:34.004Z,100245.59
2023-11-07T07:26:35.547Z,100240.47
2023-11-07T07:29:38.693Z,100245.59
2023-11-07T07:32:42.284Z,100255.91
2023-11-07T07:35:46.595Z,100258.53
2023-11-07T07:38:48.314Z,100254.91
2023-11-07T07:41:49.829Z,100254.13
2023-11-07T07:44:51.954Z,100253.06
2023-11-07T07:47:54.462Z,100257.47
2023-11-07T07:50:59.771Z,100255.75
2023-11-07T07:54:01.240Z,100260.19
2023-11-07T07:57:02.724Z,100250.59
2023-11-07T08:00:12.912Z,100262.06
2023-11-07T08:03:16.353Z,100254.81
2023-11-07T08:06:17.965Z,100254.81
2023-11-07T08:09:20.287Z,100256.41
2023-11-07T08:12:22.272Z,100247.59
2023-11-07T08:15:26.327Z,100257.16
2023-11-07T08:18:27.894Z,100256.06
2023-11-07T08:21:29.371Z,100253.34
2023-11-07T08:24:30.932Z,100256.94
2023-11-07T08:27:33.303Z,100257.66
2023-11-07T08:30:34.760Z,100265.47
2023-11-07T08:36:43.805Z,100258.91
2023-11-07T08:39:50.528Z,100263.00
2023-11-07T08:42:52.671Z,100262.84
2023-11-07T08:45:54.212Z,100273.34
2023-11-07T08:48:56.092Z,100264.31
2023-11-07T08:51:58.703Z,100273.25
2023-11-07T08:55:04.190Z,100280.94
2023-11-07T08:58:06.694Z,100276.56
2023-11-07T09:01:11.487Z,100277.28
2023-11-07T09:04:13.073Z,100276.03
2023-11-07T09:07:17.688Z,100269.03
2023-11-07T09:10:21.256Z,100266.34
2023-11-07T09:13:24.453Z,100270.53
2023-11-07T09:16:26.278Z,100270.31
2023-11-07T09:19:27.839Z,100268.34
2023-11-07T09:22:29.768Z,100284.63
2023-11-07T09:25:31.438Z,100277.63
2023-11-07T09:28:33.013Z,100285.00
2023-11-07T09:31:34.558Z,100280.91
2023-11-07T09:34:41.095Z,100282.59
2023-11-07T09:37:43.184Z,100283.72
2023-11-07T09:40:45.492Z,100280.88
2023-11-07T09:43:47.896Z,100284.25
2023-11-07T09:46:51.367Z,100295.81
2023-11-07T09:49:55.838Z,100297.56
2023-11-07T09:52:57.951Z,100293.47
2023-11-07T09:56:01.212Z,100290.91
2023-11-07T09:59:09.794Z,100296.91
2023-11-07T10:02:11.372Z,100297.81
2023-11-07T10:05:13.180Z,100304.25
2023-11-07T10:08:14.891Z,100302.38
2023-11-07T10:11:16.357Z,100300.00
2023-11-07T10:14:21.299Z,100302.69
2023-11-07T10:17:23.586Z,100301.00
2023-11-07T10:20:25.576Z,100299.78
2023-11-07T10:23:27.131Z,100298.19
2023-11-07T10:26:28.891Z,100293.81
2023-11-07T10:29:40.458Z,100294.47
2023-11-07T10:32:46.441Z,100293.53
2023-11-07T10:36:00.226Z,100299.56
2023-11-07T10:39:02.265Z,100288.03
2023-11-07T10:42:20.661Z,100290.50
2023-11-07T10:45:23.305Z,100291.41
2023-11-07T10:48:26.577Z,100283.72
2023-11-07T10:51:30.676Z,100287.22
2023-11-07T10:54:33.069Z,100287.69
2023-11-07T10:57:37.683Z,100291.97
2023-11-07T11:00:40.803Z,100284.00
2023-11-07T11:03:46.119Z,100283.75
2023-11-07T11:06:58.491Z,100289.00
2023-11-07T11:10:03.105Z,100286.75
2023-11-07T11:13:06.084Z,100286.00
2023-11-07T11:16:09.054Z,100289.06
2023-11-07T11:19:22.105Z,100280.69
2023-11-07T11:22:32.399Z,100284.09
2023-11-07T11:26:02.368Z,100280.84
2023-11-07T11:29:26.340Z,100280.72
2023-11-07T11:32:33.078Z,100284.09
2023-11-07T11:35:39.216Z,100280.06
2023-11-07T11:38:40.912Z,100281.31
2023-11-07T11:41:58.715Z,100271.91
2023-11-07T11:45:40.862Z,100275.22
2023-11-07T11:48:52.066Z,100272.78
2023-11-07T11:51:55.481Z,100278.53
2023-11-07T11:54:57.059Z,100278.22
2023-11-07T11:58:16.824Z,100277.81
2023-11-07T12:01:22.254Z,100270.56
2023-11-07T12:04:49.191Z,100272.66
2023-11-07T12:07:50.871Z,100270.69
2023-11-07T12:10:59.360Z,100274.94
2023-11-07T12:14:02.634Z,100271.84
2023-11-07T12:17:04.266Z,100267.63
2023-11-07T12:20:09.489Z,100267.38
2023-11-07T12:23:16.736Z,100264.94
2023-11-07T12:26:18.567Z,100270.66
2023-11-07T12:29:37.502Z,100278.09
2023-11-07T12:32:39.026Z,100265.09
2023-11-07T12:35:40.792Z,100263.06
2023-11-07T12:38:43.414Z,100264.63
2023-11-07T12:41:45.978Z,100260.97
2023-11-07T12:44:50.830Z,100271.00
2023-11-07T12:48:25.491Z,100265.44
2023-11-07T12:51:27.018Z,100265.25
2023-11-07T12:54:28.550Z,100266.47
2023-11-07T12:57:37.787Z,100264.50
2023-11-07T13:01:00.466Z,100267.78
2023-11-07T13:04:01.963Z,100267.28
2023-11-07T13:07:05.016Z,100260.81
2023-11-07T13:10:14.645Z,100257.38
2023-11-07T13:13:16.450Z,100261.53
2023-11-07T13:16:18.564Z,100258.63
2023-11-07T13:19:20.048Z,100252.03
2023-11-07T13:22:21.602Z,100245.81
2023-11-07T13:25:23.598Z,100243.34
2023-11-07T13:28:26.697Z,100246.34
2023-11-07T13:31:30.388Z,100248.53
2023-11-07T13:34:32.086Z,100255.69
2023-11-07T13:37:34.562Z,100250.63
2023-11-07T13:40:36.323Z,100238.63
2023-11-07T13:43:37.893Z,100248.91
2023-11-07T13:46:40.099Z,100252.22
2023-11-07T13:49:41.650Z,100263.78
2023-11-07T13:52:43.075Z,100259.75
2023-11-07T13:55:44.842Z,100261.13
2023-11-07T13:58:47.080Z,100273.13
2023-11-07T14:01:48.569Z,100270.53
2023-11-07T14:04:50.368Z,100265.56
2023-11-07T14:07:53.052Z,100278.41
2023-11-07T14:10:55.311Z,100278.75
2023-11-07T14:13:56.792Z,100274.88
2023-11-07T14:16:58.346Z,100275.38
2023-11-07T14:20:00.755Z,100270.94
2023-11-07T14:23:02.480Z,100271.44
2023-11-07T14:26:07.549Z,100278.50
2023-11-07T14:29:26.684Z,100273.41
2023-11-07T14:32:31.676Z,100282.69
2023-11-07T14:35:34.776Z,100273.91
2023-11-07T14:38:37.564Z,100272.47
2023-11-07T14:41:41.705Z,100276.50
2023-11-07T14:44:46.464Z,100280.03
2023-11-07T14:47:48.704Z,100284.63
2023-11-07T14:50:54.093Z,100287.22
2023-11-07T14:53:55.598Z,100281.06
2023-11-07T14:57:03.723Z,100290.72
2023-11-07T15:00:10.280Z,100290.81
2023-11-07T15:03:12.550Z,100296.31
2023-11-07T15:06:15.020Z,100295.38
2023-11-07T15:09:16.887Z,100296.00
2023-11-07T15:12:18.398Z,100307.88
2023-11-07T15:15:24.025Z,100306.66
2023-11-07T15:18:26.167Z,100307.56
2023-11-07T15:21:27.792Z,100308.38
2023-11-07T15:24:29.330Z,100307.75
2023-11-07T15:27:30.798Z,100308.75
2023-11-07T15:30:33.037Z,100316.06
2023-11-07T15:33:35.475Z,100317.81
2023-11-07T15:36:36.964Z,100310.94
2023-11-07T15:39:38.389Z,100318.63
2023-11-07T15:42:40.937Z,100317.78
2023-11-07T15:45:43.660Z,100317.09
2023-11-07T15:48:45.257Z,100316.34
2023-11-07T15:51:47.625Z,100327.09
2023-11-07T15:54:49.261Z,100323.94
2023-11-07T15:57:50.871Z,100324.28
2023-11-07T16:00:54.556Z,100332.50
2023-11-07T16:03:59.101Z,100334.44
2023-11-07T16:07:00.660Z,100342.25
2023-11-07T16:10:02.975Z,100343.47
2023-11-07T16:13:04.812Z,100344.78
2023-11-07T16:16:09.791Z,100358.94
2023-11-07T16:19:11.829Z,100353.88
2023-11-07T16:22:13.435Z,100354.84
2023-11-07T16:25:16.578Z,100358.47
2023-11-07T16:28:18.058Z,100367.31
2023-11-07T16:31:19.543Z,100376.91
2023-11-07T16:34:21.252Z,100372.72
2023-11-07T16:37:23.094Z,100377.94
2023-11-07T16:40:25.098Z,100393.03
2023-11-07T16:43:26.611Z,100383.38
2023-11-07T16:46:28.028Z,100394.53
2023-11-07T16:49:29.507Z,100401.50
2023-11-07T16:52:30.964Z,100402.34
2023-11-07T16:55:32.559Z,100411.94
2023-11-07T16:58:34.007Z,100402.16
2023-11-07T17:01:35.769Z,100408.41
2023-11-07T17:04:38.253Z,100410.78
2023-11-07T17:07:39.908Z,100412.81
2023-11-07T17:10:41.928Z,100413.72
2023-11-07T17:13:43.379Z,100418.47
2023-11-07T17:16:44.906Z,100413.09
2023-11-07T17:19:49.917Z,100425.47
2023-11-07T17:22:51.977Z,100429.91
2023-11-07T17:25:53.417Z,100430.78
2023-11-07T17:28:54.921Z,100439.75
2023-11-07T17:31:58.727Z,100436.91
2023-11-07T17:35:04.468Z,100437.81
2023-11-07T17:38:05.969Z,100437.03
2023-11-07T17:41:16.610Z,100444.97
2023-11-07T17:44:21.900Z,100444.84
2023-11-07T17:47:26.215Z,100445.03
2023-11-07T17:50:29.953Z,100447.63
2023-11-07T17:53:31.397Z,100458.34
2023-11-07T17:56:34.085Z,100460.66
2023-11-07T17:59:35.682Z,100464.50
2023-11-07T18:02:38.500Z,100466.50
2023-11-07T18:05:40.051Z,100466.75
2023-11-07T18:08:43.026Z,100464.84
2023-11-07T18:11:46.211Z,100466.69
2023-11-07T18:14:47.745Z,100467.44
2023-11-07T18:17:49.351Z,100467.44
2023-11-07T18:20:50.819Z,100464.28
2023-11-07T18:23:52.379Z,100466.59
2023-11-07T18:26:57.618Z,100470.41
2023-11-07T18:30:00.605Z,100465.03
2023-11-07T18:33:02.283Z,100481.56
2023-11-07T18:36:04.300Z,100482.13
2023-11-07T18:39:05.864Z,100485.66
2023-11-07T18:42:08.084Z,100477.75
2023-11-07T18:45:11.795Z,100481.47
2023-11-07T18:48:13.415Z,100480.41
2023-11-07T18:51:15.055Z,100476.91
2023-11-07T18:54:16.653Z,100474.31
2023-11-07T18:57:18.161Z,100481.72
2023-11-07T19:00:22.377Z,100483.53
2023-11-07T19:03:23.940Z,100488.75
2023-11-07T19:06:26.376Z,100490.59
2023-11-07T19:09:29.479Z,100496.03
2023-11-07T19:12:31.091Z,100484.69
2023-11-07T19:15:32.632Z,100499.63
2023-11-07T19:18:36.147Z,100498.72
2023-11-07T19:21:40.232Z,100511.81
2023-11-07T19:24:42.877Z,100506.53
2023-11-07T19:27:45.599Z,100506.75
2023-11-07T19:30:47.087Z,100513.81
2023-11-07T19:33:51.532Z,100515.59
2023-11-07T19:36:54.054Z,100523.88
2023-11-07T19:39:58.033Z,100524.75
2023-11-07T19:42:59.701Z,100535.25
2023-11-07T19:46:01.119Z,100535.03
2023-11-07T19:49:03.959Z,100538.41
2023-11-07T19:52:05.957Z,100533.22
2023-11-07T19:55:08.233Z,100532.41
2023-11-07T19:58:10.118Z,100538.56
2023-11-07T20:01:14.225Z,100533.53
2023-11-07T20:04:15.878Z,100531.94
2023-11-07T20:07:17.423Z,100534.72
2023-11-07T20:10:18.908Z,100534.47
2023-11-07T20:13:20.447Z,100535.44
2023-11-07T20:16:21.893Z,100533.75
2023-11-07T20:19:23.491Z,100540.81
2023-11-07T20:22:26.072Z,100540.97
2023-11-07T20:25:27.508Z,100542.81
2023-11-07T20:28:28.971Z,100542.88
2023-11-07T20:31:35.694Z,100542.88
2023-11-07T20:34:38.040Z,100537.59
2023-11-07T20:37:40.227Z,100540.94
2023-11-07T20:40:41.780Z,100547.00
2023-11-07T20:43:43.490Z,100552.22
2023-11-07T20:46:45.061Z,100546.00
2023-11-07T20:49:49.893Z,100549.63
2023-11-07T20:52:52.245Z,100552.16
2023-11-07T20:55:54.762Z,100552.16
2023-11-07T20:58:57.536Z,100545.28
2023-11-07T21:01:59.356Z,100544.41
2023-11-07T21:05:01.442Z,100542.88
2023-11-07T21:08:02.969Z,100538.47
2023-11-07T21:11:04.860Z,100543.66
2023-11-07T21:14:06.352Z,100546.41
2023-11-07T21:17:07.876Z,100553.59
2023-11-07T21:20:11.369Z,100555.47
2023-11-07T21:23:13.000Z,100544.94
2023-11-07T21:26:15.272Z,100552.09
2023-11-07T21:29:16.748Z,100550.38
2023-11-07T21:32:18.289Z,100552.09
2023-11-07T21:35:19.820Z,100550.34
2023-11-07T21:38:22.777Z,100550.34
2023-11-07T21:41:24.224Z,100560.00
2023-11-07T21:44:25.902Z,100552.31
2023-11-07T21:47:27.431Z,100546.09
2023-11-07T21:50:28.915Z,100543.59
2023-11-07T21:53:30.712Z,100550.63
2023-11-07T21:56:32.506Z,100545.25
2023-11-07T21:59:34.212Z,100546.22
2023-11-07T22:02:36.060Z,100542.88
2023-11-07T22:05:37.594Z,100542.00
2023-11-07T22:08:39.260Z,100548.06
2023-11-07T22:11:40.694Z,100553.31
2023-11-07T22:14:42.111Z,100554.34
2023-11-07T22:17:44.327Z,100557.75
2023-11-07T22:20:45.769Z,100567.50
2023-11-07T22:23:47.198Z,100557.03
2023-11-07T22:26:48.741Z,100550.06
2023-11-07T22:29:50.619Z,100550.91
2023-11-07T22:32:52.434Z,100553.53
2023-11-07T22:35:54.448Z,100552.75
2023-11-07T22:38:56.001Z,100559.72
2023-11-07T22:41:57.417Z,100561.59
2023-11-07T22:44:59.093Z,100559.78
2023-11-07T22:48:01.269Z,100560.63
2023-11-07T22:51:03.562Z,100559.84
2023-11-07T22:54:05.284Z,100573.25
2023-11-07T22:57:07.211Z,100575.81
2023-11-07T23:00:11.956Z,100572.41
2023-11-07T23:03:14.235Z,100582.09
2023-11-07T23:06:15.976Z,100580.38
2023-11-07T23:09:19.502Z,100582.19
2023-11-07T23:12:20.985Z,100583.09
2023-11-07T23:15:22.470Z,100590.88
2023-11-07T23:18:24.565Z,100586.44
2023-11-07T23:21:27.072Z,100588.03
2023-11-07T23:24:28.676Z,100595.03
2023-11-07T23:27:33.718Z,100591.38
2023-11-07T23:30:35.253Z,100587.91
2023-11-07T23:33:36.854Z,100592.28
2023-11-07T23:36:38.572Z,100606.16
2023-11-07T23:39:40.053Z,100603.53
2023-11-07T23:42:44.559Z,100604.28
2023-11-07T23:45:46.200Z,100603.47
2023-11-07T23:48:47.689Z,100610.41
2023-11-07T23:51:49.358Z,100610.56
2023-11-07T23:54:50.780Z,100612.31
2023-11-07T23:57:52.732Z,100608.66
